createdAt,value
2017-11-18T00:02:14.800Z,9.30
2017-11-18T00:04:42.413Z,10.47
2017-11-18T00:07:09.992Z,11.03
2017-11-18T00:09:37.584Z,9.50
2017-11-18T00:12:05.948Z,13.13
2017-11-18T00:14:33.531Z,8.30
2017-11-18T00:17:01.128Z,7.23
2017-11-18T00:19:28.767Z,7.20
2017-11-18T00:21:57.116Z,7.10
2017-11-18T00:24:24.700Z,7.70
2017-11-18T00:26:53.767Z,8.43
2017-11-18T00:29:21.324Z,9.00
2017-11-18T00:31:48.936Z,8.17
2017-11-18T00:34:16.505Z,8.40
2017-11-18T00:36:44.132Z,7.20
2017-11-18T00:39:12.468Z,7.40
2017-11-18T00:41:40.083Z,8.67
2017-11-18T00:44:08.424Z,9.53
2017-11-18T00:46:36.007Z,10.57
2017-11-18T00:49:03.574Z,9.00
2017-11-18T00:51:31.928Z,8.20
2017-11-18T00:53:59.484Z,8.33
2017-11-18T00:56:27.067Z,8.73
2017-11-18T00:58:55.412Z,10.47
2017-11-18T01:01:22.991Z,9.80
2017-11-18T01:03:50.570Z,9.10
2017-11-18T01:19:18.180Z,7.77
2017-11-18T01:21:45.740Z,9.50
2017-11-18T01:24:13.290Z,9.60
2017-11-18T01:26:40.887Z,8.50
2017-11-18T01:29:08.446Z,9.50
2017-11-18T01:31:36.015Z,7.80
2017-11-18T01:34:03.602Z,8.53
2017-11-18T01:36:31.944Z,7.90
2017-11-18T01:39:00.234Z,8.70
2017-11-18T01:41:27.839Z,7.97
2017-11-18T01:43:55.411Z,9.03
2017-11-18T01:46:22.999Z,9.63
2017-11-18T01:48:50.579Z,9.17
2017-11-18T01:51:18.151Z,7.63
2017-11-18T01:53:46.540Z,8.17
2017-11-18T01:56:14.858Z,8.27
2017-11-18T01:58:42.460Z,8.00
2017-11-18T02:01:10.038Z,8.47
2017-11-18T02:03:38.461Z,8.90
2017-11-18T02:06:06.032Z,7.80
2017-11-18T02:08:33.593Z,9.47
2017-11-18T02:11:01.173Z,9.13
2017-11-18T02:13:28.735Z,10.10
2017-11-18T02:15:56.295Z,9.40
2017-11-18T02:18:23.899Z,10.33
2017-11-18T02:20:51.929Z,9.93
2017-11-18T02:23:19.507Z,9.47
2017-11-18T02:25:47.069Z,8.77
2017-11-18T02:28:14.622Z,9.43
2017-11-18T02:30:42.357Z,9.97
2017-11-18T02:33:09.898Z,8.90
2017-11-18T02:35:37.466Z,9.13
2017-11-18T02:38:05.012Z,9.23
2017-11-18T02:40:32.589Z,8.67
2017-11-18T02:43:00.134Z,9.27
2017-11-18T02:45:27.733Z,9.10
2017-11-18T02:47:55.300Z,8.60
2017-11-18T02:50:22.852Z,8.73
2017-11-18T02:52:50.432Z,7.93
2017-11-18T02:55:17.982Z,7.70
2017-11-18T02:57:45.559Z,8.20
2017-11-18T03:00:13.901Z,7.73
2017-11-18T03:02:41.513Z,7.90
2017-11-18T03:05:09.875Z,8.37
2017-11-18T03:07:37.506Z,7.90
2017-11-18T03:10:05.083Z,7.97
2017-11-18T03:12:32.770Z,7.73
2017-11-18T03:15:01.071Z,7.43
2017-11-18T03:17:28.619Z,7.43
2017-11-18T03:19:56.212Z,8.43
2017-11-18T03:22:23.840Z,7.83
2017-11-18T03:24:51.443Z,7.70
2017-11-18T03:27:19.016Z,6.93
2017-11-18T03:29:46.617Z,6.90
2017-11-18T03:32:14.946Z,7.30
2017-11-18T03:34:42.568Z,6.80
2017-11-18T03:37:11.177Z,6.50
2017-11-18T03:39:38.730Z,7.33
2017-11-18T03:42:06.359Z,7.57
2017-11-18T03:44:33.954Z,7.07
2017-11-18T03:47:01.530Z,7.63
2017-11-18T03:49:29.096Z,7.33
2017-11-18T03:51:56.692Z,7.40
2017-11-18T03:54:24.263Z,8.23
2017-11-18T03:56:52.603Z,7.20
2017-11-18T03:59:20.228Z,6.50
2017-11-18T04:01:48.405Z,7.27
2017-11-18T04:04:16.013Z,6.10
2017-11-18T04:06:43.592Z,6.53
2017-11-18T04:09:11.167Z,5.87
2017-11-18T04:11:39.499Z,5.67
2017-11-18T04:14:07.081Z,6.00
2017-11-18T04:16:34.639Z,5.77
2017-11-18T04:19:02.217Z,6.10
2017-11-18T04:21:30.558Z,6.27
2017-11-18T04:23:58.147Z,5.93
2017-11-18T04:26:25.716Z,5.87
2017-11-18T04:28:53.310Z,6.20
2017-11-18T04:31:21.207Z,6.40
2017-11-18T04:33:48.771Z,6.93
2017-11-18T04:36:16.432Z,5.77
2017-11-18T04:38:44.000Z,5.97
2017-11-18T04:41:11.548Z,6.20
2017-11-18T04:43:39.143Z,6.40
2017-11-18T04:46:06.728Z,6.47
2017-11-18T04:48:35.070Z,5.90
2017-11-18T04:51:02.658Z,6.77
2017-11-18T04:53:31.020Z,6.43
2017-11-18T04:55:58.672Z,6.73
2017-11-18T04:58:26.254Z,7.10
2017-11-18T05:00:53.808Z,6.60
2017-11-18T05:03:21.403Z,6.47
2017-11-18T05:05:48.968Z,6.60
2017-11-18T05:08:16.769Z,8.10
2017-11-18T05:10:44.314Z,7.17
2017-11-18T05:13:11.879Z,6.37
2017-11-18T05:15:39.457Z,8.77
2017-11-18T05:18:07.017Z,9.30
2017-11-18T05:20:34.600Z,7.93
2017-11-18T05:23:02.176Z,7.27
2017-11-18T05:25:30.637Z,7.60
2017-11-18T05:27:58.214Z,7.03
2017-11-18T05:30:26.543Z,7.30
2017-11-18T05:32:54.300Z,6.73
2017-11-18T05:35:21.943Z,7.80
2017-11-18T05:37:49.502Z,6.90
2017-11-18T05:40:17.055Z,7.43
2017-11-18T05:42:45.406Z,6.57
2017-11-18T05:45:12.979Z,7.27
2017-11-18T05:47:41.310Z,6.20
2017-11-18T05:50:08.870Z,6.37
2017-11-18T05:52:36.490Z,7.20
2017-11-18T05:55:04.808Z,6.77
2017-11-18T05:57:32.399Z,6.47
2017-11-18T05:59:59.962Z,7.27
2017-11-18T06:02:27.601Z,6.53
2017-11-18T06:04:55.198Z,6.83
2017-11-18T06:07:22.951Z,6.60
2017-11-18T06:09:50.516Z,6.40
2017-11-18T06:12:18.093Z,7.07
2017-11-18T06:14:46.454Z,6.70
2017-11-18T06:17:14.012Z,7.50
2017-11-18T06:19:41.596Z,7.70
2017-11-18T06:22:09.919Z,7.47
2017-11-18T06:24:37.502Z,7.37
2017-11-18T06:27:05.047Z,8.50
2017-11-18T06:29:32.628Z,7.53
2017-11-18T06:32:00.199Z,8.13
2017-11-18T06:34:27.779Z,7.03
2017-11-18T06:36:57.088Z,6.70
2017-11-18T06:39:25.446Z,7.10
2017-11-18T06:41:53.074Z,7.07
2017-11-18T06:44:20.751Z,8.00
2017-11-18T06:46:48.346Z,7.50
2017-11-18T06:49:16.687Z,7.57
2017-11-18T06:51:44.254Z,6.60
2017-11-18T06:54:11.960Z,7.30
2017-11-18T06:56:40.447Z,7.10
2017-11-18T06:59:08.038Z,7.60
2017-11-18T07:01:35.698Z,8.10
2017-11-18T07:04:03.280Z,7.40
2017-11-18T07:06:30.885Z,7.70
2017-11-18T07:08:59.928Z,8.10
2017-11-18T07:11:27.515Z,7.47
2017-11-18T07:13:55.084Z,6.07
2017-11-18T07:16:22.754Z,8.00
2017-11-18T07:18:50.432Z,9.07
2017-11-18T07:21:18.774Z,8.00
2017-11-18T07:23:46.339Z,9.73
2017-11-18T07:26:13.919Z,9.07
2017-11-18T07:28:42.368Z,7.70
2017-11-18T07:31:09.928Z,8.80
2017-11-18T07:33:37.516Z,8.77
2017-11-18T07:36:05.904Z,8.33
2017-11-18T07:38:34.299Z,9.20
2017-11-18T07:41:01.961Z,8.67
2017-11-18T07:43:29.535Z,8.83
2017-11-18T07:45:57.149Z,8.60
2017-11-18T07:48:24.699Z,9.90
2017-11-18T07:50:52.300Z,9.13
2017-11-18T07:53:20.629Z,9.47
2017-11-18T07:55:48.220Z,8.90
2017-11-18T07:58:15.780Z,9.83
2017-11-18T08:00:43.475Z,9.93
2017-11-18T08:03:11.100Z,9.30
2017-11-18T08:05:38.651Z,8.60
2017-11-18T08:08:06.241Z,10.50
2017-11-18T08:10:34.577Z,10.43
2017-11-18T08:13:02.220Z,9.47
2017-11-18T08:15:29.790Z,8.57
2017-11-18T08:17:57.385Z,8.80
2017-11-18T08:20:24.960Z,9.10
2017-11-18T08:22:53.421Z,9.37
2017-11-18T08:25:21.015Z,11.00
2017-11-18T08:27:49.382Z,9.20
2017-11-18T08:30:17.713Z,9.20
2017-11-18T08:32:45.328Z,8.93
2017-11-18T08:35:13.641Z,9.47
2017-11-18T08:37:41.241Z,9.93
2017-11-18T08:40:08.844Z,8.53
2017-11-18T08:42:36.412Z,7.90
2017-11-18T08:45:03.981Z,7.50
2017-11-18T08:47:31.589Z,7.30
2017-11-18T08:49:59.168Z,8.90
2017-11-18T08:52:27.494Z,8.70
2017-11-18T08:54:55.147Z,7.50
2017-11-18T08:57:23.492Z,7.90
2017-11-18T08:59:51.858Z,7.13
2017-11-18T09:02:20.227Z,8.00
2017-11-18T09:04:47.821Z,6.73
2017-11-18T09:07:16.369Z,7.20
2017-11-18T09:09:43.976Z,7.40
2017-11-18T09:12:11.567Z,7.77
2017-11-18T09:14:39.145Z,6.60
2017-11-18T09:17:06.725Z,6.17
2017-11-18T09:19:34.307Z,6.10
2017-11-18T09:22:02.641Z,6.53
2017-11-18T09:24:30.219Z,5.90
2017-11-18T09:26:57.820Z,6.33
2017-11-18T09:29:25.410Z,7.73
2017-11-18T09:31:53.790Z,7.30
2017-11-18T09:34:21.361Z,6.60
2017-11-18T09:36:48.929Z,6.77
2017-11-18T09:39:16.532Z,7.10
2017-11-18T09:41:44.858Z,7.03
2017-11-18T09:44:12.540Z,7.00
2017-11-18T09:46:40.087Z,8.30
2017-11-18T09:49:08.578Z,6.23
2017-11-18T09:51:36.246Z,6.30
2017-11-18T09:54:04.105Z,7.23
2017-11-18T09:56:31.656Z,6.27
2017-11-18T09:58:59.248Z,7.90
2017-11-18T10:01:26.826Z,7.80
2017-11-18T10:03:55.185Z,8.37
2017-11-18T10:06:22.866Z,7.23
2017-11-18T10:08:51.221Z,8.97
2017-11-18T10:11:18.875Z,7.80
2017-11-18T10:13:46.465Z,7.00
2017-11-18T10:16:14.831Z,8.27
2017-11-18T10:18:42.391Z,7.20
2017-11-18T10:21:10.028Z,7.63
2017-11-18T10:23:37.602Z,9.40
2017-11-18T10:26:05.199Z,8.77
2017-11-18T10:28:32.825Z,8.77
2017-11-18T10:31:00.442Z,9.37
2017-11-18T10:33:28.024Z,9.00
2017-11-18T10:35:55.604Z,9.83
2017-11-18T10:38:23.188Z,10.27
2017-11-18T10:40:50.747Z,9.50
2017-11-18T10:43:19.087Z,6.90
2017-11-18T10:45:46.664Z,9.87
2017-11-18T10:48:14.257Z,10.50
2017-11-18T10:50:42.635Z,8.83
2017-11-18T10:53:10.999Z,9.50
2017-11-18T10:55:38.574Z,11.80
2017-11-18T10:58:06.962Z,10.40
2017-11-18T11:00:35.305Z,10.30
2017-11-18T11:03:02.910Z,9.17
2017-11-18T11:05:31.260Z,10.20
2017-11-18T11:07:58.839Z,9.87
2017-11-18T11:10:27.184Z,8.43
2017-11-18T11:12:54.827Z,9.00
2017-11-18T11:15:22.448Z,10.43
2017-11-18T11:17:50.811Z,8.00
2017-11-18T11:20:18.384Z,9.87
2017-11-18T11:22:46.792Z,9.23
2017-11-18T11:25:14.379Z,7.67
2017-11-18T11:27:41.933Z,8.10
2017-11-18T11:30:09.494Z,8.53
2017-11-18T11:32:37.106Z,8.67
2017-11-18T11:35:05.508Z,9.80
2017-11-18T11:37:33.198Z,10.20
2017-11-18T11:40:00.783Z,9.37
2017-11-18T11:42:28.367Z,9.80
2017-11-18T11:44:56.729Z,8.70
2017-11-18T11:47:24.317Z,8.57
2017-11-18T11:49:52.679Z,10.57
2017-11-18T11:52:20.279Z,8.83
2017-11-18T11:54:47.864Z,10.87
2017-11-18T11:57:15.451Z,6.80
2017-11-18T11:59:43.035Z,9.93
2017-11-18T12:02:11.406Z,8.33
2017-11-18T12:04:39.018Z,9.60
2017-11-18T12:07:06.598Z,8.73
2017-11-18T12:09:34.190Z,9.13
2017-11-18T12:12:02.530Z,8.30
2017-11-18T12:14:30.115Z,9.17
2017-11-18T12:16:57.692Z,8.67
2017-11-18T12:19:26.384Z,8.20
2017-11-18T12:21:54.776Z,7.43
2017-11-18T12:24:23.124Z,8.27
2017-11-18T12:26:50.703Z,9.13
2017-11-18T12:29:19.028Z,7.60
2017-11-18T12:31:46.735Z,7.77
2017-11-18T12:34:14.325Z,8.03
2017-11-18T12:39:15.761Z,7.97
2017-11-18T12:41:43.357Z,8.17
2017-11-18T12:44:10.915Z,7.90
2017-11-18T12:46:38.492Z,8.90
2017-11-18T12:49:06.079Z,7.50
2017-11-18T12:51:33.690Z,8.00
2017-11-18T12:54:02.504Z,6.67
2017-11-18T12:56:30.096Z,6.30
2017-11-18T12:58:57.689Z,6.80
2017-11-18T13:01:32.313Z,11.30
2017-11-18T13:04:02.783Z,12.23
2017-11-18T13:06:33.595Z,10.70
2017-11-18T13:09:06.065Z,9.20
2017-11-18T13:11:33.717Z,6.70
2017-11-18T13:14:01.323Z,6.43
2017-11-18T13:16:28.922Z,6.67
2017-11-18T13:18:56.530Z,6.57
2017-11-18T13:21:24.108Z,6.90
2017-11-18T13:23:51.755Z,5.30
2017-11-18T13:26:19.347Z,6.30
2017-11-18T13:28:52.584Z,8.30
2017-11-18T13:31:21.143Z,6.77
2017-11-18T13:33:51.845Z,10.13
2017-11-18T13:36:19.551Z,6.50
2017-11-18T13:38:47.118Z,7.37
2017-11-18T13:41:14.695Z,6.13
2017-11-18T13:43:43.029Z,6.33
2017-11-18T13:46:10.702Z,6.80
2017-11-18T13:48:38.290Z,6.50
2017-11-18T13:51:06.671Z,6.93
2017-11-18T13:53:35.021Z,5.17
2017-11-18T13:56:02.744Z,7.10
2017-11-18T13:58:30.324Z,6.60
2017-11-18T14:00:57.937Z,6.23
2017-11-18T14:03:26.305Z,8.80
2017-11-18T14:05:53.903Z,8.10
2017-11-18T14:08:21.531Z,9.10
2017-11-18T14:10:49.124Z,7.70
2017-11-18T14:13:16.840Z,6.80
2017-11-18T14:15:44.639Z,7.37
2017-11-18T14:18:13.043Z,9.43
2017-11-18T14:20:40.692Z,5.17
2017-11-18T14:23:09.020Z,7.87
2017-11-18T14:25:36.610Z,8.97
2017-11-18T14:28:04.198Z,9.60
2017-11-18T14:30:31.795Z,9.13
2017-11-18T14:33:00.338Z,10.00
2017-11-18T14:35:27.936Z,10.50
2017-11-18T14:37:56.336Z,9.07
2017-11-18T14:40:23.877Z,7.90
2017-11-18T14:42:51.468Z,8.33
2017-11-18T14:45:19.105Z,9.20
2017-11-18T14:47:46.714Z,9.33
2017-11-18T14:50:15.078Z,9.10
2017-11-18T14:52:43.447Z,8.00
2017-11-18T14:55:11.198Z,8.53
2017-11-18T14:57:39.718Z,12.80
2017-11-18T15:00:08.085Z,7.70
2017-11-18T15:02:36.445Z,9.50
2017-11-18T15:05:04.016Z,9.63
2017-11-18T15:07:31.683Z,9.77
2017-11-18T15:09:59.249Z,9.60
2017-11-18T15:12:26.828Z,8.97
2017-11-18T15:14:58.355Z,9.23
2017-11-18T15:17:31.691Z,9.80
2017-11-18T15:20:04.881Z,8.93
2017-11-18T15:22:50.082Z,10.57
2017-11-18T15:25:23.262Z,7.47
2017-11-18T15:28:05.919Z,8.70
2017-11-18T15:30:53.170Z,9.23
2017-11-18T15:33:23.254Z,8.20
2017-11-18T15:36:07.646Z,8.20
2017-11-18T15:38:45.955Z,11.37
2017-11-18T15:41:14.295Z,9.07
2017-11-18T15:43:58.634Z,9.10
2017-11-18T15:46:31.852Z,8.70
2017-11-18T15:49:04.974Z,9.93
2017-11-18T15:51:36.090Z,7.90
2017-11-18T15:54:15.554Z,10.17
2017-11-18T15:56:52.470Z,4.90
2017-11-18T15:59:20.046Z,4.00
2017-11-18T16:01:52.028Z,2.90
2017-11-18T16:04:22.299Z,4.20
2017-11-18T16:09:57.277Z,2.90
2017-11-18T16:12:24.846Z,3.33
2017-11-18T16:14:52.456Z,3.50
2017-11-18T16:17:20.831Z,3.37
2017-11-18T16:19:49.252Z,2.47
2017-11-18T16:22:16.914Z,2.50
2017-11-18T16:24:44.500Z,4.90
2017-11-18T16:27:12.869Z,2.77
2017-11-18T16:29:40.474Z,2.20
2017-11-18T16:32:08.847Z,2.77
2017-11-18T16:34:36.443Z,2.70
2017-11-18T16:37:04.026Z,2.43
2017-11-18T16:39:31.656Z,3.90
2017-11-18T16:42:00.007Z,2.30
2017-11-18T16:44:27.564Z,3.10
2017-11-18T16:46:55.149Z,2.77
2017-11-18T16:49:23.466Z,3.30
2017-11-18T16:51:51.056Z,2.50
2017-11-18T16:54:18.619Z,2.93
2017-11-18T16:56:46.240Z,3.67
2017-11-18T16:59:13.878Z,3.67
2017-11-18T17:01:42.225Z,2.97
2017-11-18T17:04:09.932Z,3.97
2017-11-18T17:06:38.249Z,6.07
2017-11-18T17:09:05.833Z,4.30
2017-11-18T17:11:33.438Z,5.37
2017-11-18T17:14:01.097Z,3.90
2017-11-18T17:16:28.649Z,4.20
2017-11-18T17:18:57.028Z,3.40
2017-11-18T17:21:25.443Z,3.10
2017-11-18T17:23:53.092Z,3.60
2017-11-18T17:26:20.708Z,3.97
2017-11-18T17:28:48.299Z,3.33
2017-11-18T17:31:16.669Z,3.53
2017-11-18T17:33:45.046Z,3.27
2017-11-18T17:36:13.440Z,3.70
2017-11-18T17:38:41.157Z,4.37
2017-11-18T17:41:08.830Z,3.20
2017-11-18T17:43:36.497Z,3.17
2017-11-18T17:46:04.118Z,4.23
2017-11-18T17:48:32.514Z,3.87
2017-11-18T17:51:00.850Z,3.57
2017-11-18T17:53:28.469Z,3.83
2017-11-18T17:55:56.037Z,3.23
2017-11-18T17:58:23.634Z,3.50
2017-11-18T18:00:51.238Z,4.80
2017-11-18T18:03:18.847Z,4.10
2017-11-18T18:05:47.219Z,4.47
2017-11-18T18:08:15.590Z,6.97
2017-11-18T18:10:44.008Z,5.30
2017-11-18T18:13:11.591Z,5.80
2017-11-18T18:15:39.201Z,6.00
2017-11-18T18:18:08.317Z,8.13
2017-11-18T18:20:36.842Z,7.23
2017-11-18T18:23:04.439Z,7.33
2017-11-18T18:25:33.029Z,7.70
2017-11-18T18:28:01.416Z,8.33
2017-11-18T18:30:29.782Z,7.37
2017-11-18T18:32:58.191Z,7.57
2017-11-18T18:35:25.807Z,8.60
2017-11-18T18:37:54.230Z,7.67
2017-11-18T18:40:21.823Z,7.90
2017-11-18T18:42:50.193Z,8.40
2017-11-18T18:45:17.800Z,7.83
2017-11-18T18:47:45.482Z,8.33
2017-11-18T18:50:13.841Z,7.40
2017-11-18T18:52:41.784Z,8.90
2017-11-18T18:55:09.524Z,8.93
2017-11-18T18:57:37.152Z,11.67
2017-11-18T19:00:05.810Z,9.80
2017-11-18T19:02:33.476Z,10.93
2017-11-18T19:05:01.361Z,10.27
2017-11-18T19:07:29.714Z,10.57
2017-11-18T19:09:57.339Z,10.60
2017-11-18T19:12:24.933Z,9.13
2017-11-18T19:14:52.815Z,10.13
2017-11-18T19:17:20.433Z,12.23
2017-11-18T19:19:48.011Z,11.07
2017-11-18T19:22:15.715Z,10.67
2017-11-18T19:24:44.076Z,10.23
2017-11-18T19:27:11.705Z,9.83
2017-11-18T19:29:39.371Z,12.30
2017-11-18T19:32:06.999Z,12.23
2017-11-18T19:34:35.614Z,11.33
2017-11-18T19:37:03.260Z,11.20
2017-11-18T19:39:30.999Z,12.77
2017-11-18T19:41:59.340Z,11.37
2017-11-18T19:44:27.008Z,10.57
2017-11-18T19:46:54.659Z,12.60
2017-11-18T19:49:22.262Z,11.30
2017-11-18T19:51:49.840Z,11.40
2017-11-18T19:54:18.228Z,12.30
2017-11-18T19:56:45.823Z,11.67
2017-11-18T19:59:13.440Z,12.77
2017-11-18T20:01:41.867Z,12.30
2017-11-18T20:04:09.512Z,11.03
2017-11-18T20:06:37.271Z,10.67
2017-11-18T20:09:04.942Z,11.50
2017-11-18T20:11:32.621Z,11.43
2017-11-18T20:14:00.215Z,9.97
2017-11-18T20:16:27.834Z,8.40
2017-11-18T20:18:55.444Z,7.57
2017-11-18T20:21:23.862Z,7.33
2017-11-18T20:23:51.556Z,7.50
2017-11-18T20:26:19.222Z,8.17
2017-11-18T20:28:46.909Z,9.17
2017-11-18T20:31:15.346Z,8.13
2017-11-18T20:33:43.073Z,7.83
2017-11-18T20:36:11.428Z,7.13
2017-11-18T20:38:39.077Z,8.10
2017-11-18T20:41:07.162Z,7.20
2017-11-18T20:43:34.840Z,7.33
2017-11-18T20:46:03.211Z,8.13
2017-11-18T20:48:31.584Z,8.20
2017-11-18T20:50:59.666Z,8.13
2017-11-18T20:53:27.544Z,7.10
2017-11-18T20:55:55.944Z,7.03
2017-11-18T20:58:23.606Z,7.90
2017-11-18T21:00:51.613Z,8.60
2017-11-18T21:03:19.236Z,8.70
2017-11-18T21:05:47.124Z,9.27
2017-11-18T21:08:14.726Z,10.90
2017-11-18T21:10:42.321Z,11.00
2017-11-18T21:13:10.689Z,11.43
2017-11-18T21:15:39.161Z,13.90
2017-11-18T21:18:07.545Z,13.43
2017-11-18T21:20:35.978Z,11.20
2017-11-18T21:23:03.620Z,11.43
2017-11-18T21:25:31.278Z,10.87
2017-11-18T21:27:58.867Z,11.33
2017-11-18T21:30:26.580Z,11.33
2017-11-18T21:32:54.935Z,11.93
2017-11-18T21:35:22.611Z,12.53
2017-11-18T21:37:51.028Z,11.57
2017-11-18T21:40:19.285Z,12.23
2017-11-18T21:42:47.658Z,13.33
2017-11-18T21:45:16.049Z,12.27
2017-11-18T21:47:44.464Z,11.03
2017-11-18T21:50:12.052Z,12.93
2017-11-18T21:52:39.761Z,12.27
2017-11-18T21:55:07.396Z,12.93
2017-11-18T21:57:35.813Z,11.17
2017-11-18T22:00:03.433Z,11.53
2017-11-18T22:02:31.131Z,12.10
2017-11-18T22:04:59.641Z,11.67
2017-11-18T22:07:27.506Z,11.90
2017-11-18T22:09:55.269Z,13.33
2017-11-18T22:12:23.122Z,10.83
2017-11-18T22:14:50.838Z,12.20
2017-11-18T22:17:18.487Z,12.40
2017-11-18T22:19:46.144Z,11.77
2017-11-18T22:22:13.820Z,12.03
2017-11-18T22:24:41.502Z,11.97
2017-11-18T22:27:09.956Z,11.60
2017-11-18T22:29:37.669Z,12.73
2017-11-18T22:32:05.919Z,11.33
2017-11-18T22:34:33.600Z,10.47
2017-11-18T22:37:02.030Z,11.30
2017-11-18T22:39:29.725Z,10.33
2017-11-18T22:41:57.334Z,7.70
2017-11-18T22:44:24.948Z,7.90
2017-11-18T22:46:53.315Z,8.60
2017-11-18T22:49:24.649Z,11.77
2017-11-18T22:51:53.080Z,7.40
2017-11-18T22:54:20.742Z,9.50
2017-11-18T22:56:49.121Z,8.27
2017-11-18T22:59:16.801Z,8.83
2017-11-18T23:01:44.482Z,9.13
2017-11-18T23:04:12.123Z,8.53
2017-11-18T23:06:39.759Z,10.13
2017-11-18T23:09:08.224Z,9.77
2017-11-18T23:11:35.847Z,7.97
2017-11-18T23:14:03.443Z,9.57
2017-11-18T23:16:31.043Z,9.37
2017-11-18T23:18:58.687Z,9.27
2017-11-18T23:21:27.072Z,10.37
2017-11-18T23:23:54.673Z,7.83
2017-11-18T23:26:22.280Z,9.90
2017-11-18T23:28:49.872Z,10.23
2017-11-18T23:31:18.235Z,9.40
2017-11-18T23:33:46.605Z,8.80
2017-11-18T23:36:14.218Z,9.20
2017-11-18T23:38:41.802Z,8.90
2017-11-18T23:41:09.398Z,9.37
2017-11-18T23:43:36.990Z,9.23
2017-11-18T23:46:04.595Z,10.27
2017-11-18T23:48:32.173Z,9.77
2017-11-18T23:50:59.774Z,10.10
2017-11-18T23:53:27.368Z,9.77
2017-11-18T23:55:54.985Z,9.37
2017-11-18T23:58:22.583Z,9.53
